createdAt,value
2022-09-11T00:02:27.150Z,17.70
2022-09-11T00:04:55.409Z,17.70
2022-09-11T00:07:29.093Z,17.60
2022-09-11T00:09:56.102Z,17.60
2022-09-11T00:12:29.156Z,17.50
2022-09-11T00:15:02.099Z,17.60
2022-09-11T00:17:35.118Z,17.60
2022-09-11T00:20:09.103Z,17.60
2022-09-11T00:22:42.249Z,17.60
2022-09-11T00:25:22.080Z,17.60
2022-09-11T00:27:50.284Z,17.50
2022-09-11T00:30:24.144Z,17.50
2022-09-11T00:32:57.097Z,17.50
2022-09-11T00:35:24.417Z,17.50
2022-09-11T00:37:51.782Z,17.50
2022-09-11T00:40:26.112Z,17.50
2022-09-11T00:42:53.728Z,17.50
2022-09-11T00:45:29.193Z,17.50
2022-09-11T00:47:59.032Z,17.50
2022-09-11T00:50:27.809Z,17.50
2022-09-11T00:53:02.118Z,17.50
2022-09-11T00:55:32.380Z,17.50
2022-09-11T00:58:08.122Z,17.50
2022-09-11T01:00:36.027Z,17.50
2022-09-11T01:03:10.138Z,17.50
2022-09-11T01:05:39.443Z,17.50
2022-09-11T01:08:13.125Z,17.50
2022-09-11T01:10:59.312Z,17.50
2022-09-11T01:13:42.162Z,17.60
2022-09-11T01:16:32.425Z,17.60
2022-09-11T01:19:12.134Z,17.60
2022-09-11T01:21:52.466Z,17.60
2022-09-11T01:24:41.127Z,17.60
2022-09-11T01:27:26.842Z,17.60
2022-09-11T01:30:09.546Z,17.60
2022-09-11T01:32:45.097Z,17.60
2022-09-11T01:35:32.192Z,17.60
2022-09-11T01:38:12.126Z,17.60
2022-09-11T01:40:52.112Z,17.60
2022-09-11T01:43:27.241Z,17.60
2022-09-11T01:46:01.176Z,17.60
2022-09-11T01:48:40.116Z,17.60
2022-09-11T01:51:15.130Z,17.60
2022-09-11T01:53:48.108Z,17.70
2022-09-11T01:56:28.097Z,17.60
2022-09-11T01:58:57.543Z,17.60
2022-09-11T02:01:34.180Z,17.60
2022-09-11T02:04:07.575Z,17.60
2022-09-11T02:06:48.092Z,17.60
2022-09-11T02:09:16.517Z,17.50
2022-09-11T02:11:51.127Z,17.50
2022-09-11T02:14:23.967Z,17.50
2022-09-11T02:17:08.117Z,17.50
2022-09-11T02:19:34.990Z,17.50
2022-09-11T02:22:15.129Z,17.50
2022-09-11T02:24:48.440Z,17.50
2022-09-11T02:27:24.119Z,17.50
2022-09-11T02:30:00.211Z,17.50
2022-09-11T02:32:27.633Z,17.50
2022-09-11T02:35:02.132Z,17.50
2022-09-11T02:37:49.226Z,17.50
2022-09-11T02:40:33.169Z,17.50
2022-09-11T02:43:12.128Z,17.40
2022-09-11T02:45:44.542Z,17.50
2022-09-11T02:48:38.122Z,17.50
2022-09-11T02:51:14.184Z,17.50
2022-09-11T02:53:48.067Z,17.50
2022-09-11T02:56:24.135Z,17.50
2022-09-11T02:58:55.749Z,17.50
2022-09-11T03:01:30.133Z,17.50
2022-09-11T03:04:03.122Z,17.50
2022-09-11T03:06:36.128Z,17.50
2022-09-11T03:09:03.012Z,17.50
2022-09-11T03:11:36.122Z,17.50
2022-09-11T03:14:03.018Z,17.50
2022-09-11T03:16:36.154Z,17.40
2022-09-11T03:19:03.952Z,17.40
2022-09-11T03:21:38.128Z,17.30
2022-09-11T03:24:25.153Z,17.30
2022-09-11T03:26:58.105Z,17.30
2022-09-11T03:29:24.973Z,17.30
2022-09-11T03:31:58.210Z,17.30
2022-09-11T03:34:25.842Z,17.30
2022-09-11T03:37:00.171Z,17.30
2022-09-11T03:39:27.022Z,17.30
2022-09-11T03:42:01.174Z,17.30
2022-09-11T03:44:28.022Z,17.30
2022-09-11T03:47:01.165Z,17.30
2022-09-11T03:49:35.143Z,17.30
2022-09-11T03:52:02.330Z,17.30
2022-09-11T03:54:36.152Z,17.30
2022-09-11T03:57:10.178Z,17.30
2022-09-11T03:59:37.013Z,17.30
2022-09-11T04:02:10.191Z,17.20
2022-09-11T04:04:44.204Z,17.20
2022-09-11T04:07:11.043Z,17.20
2022-09-11T04:09:44.228Z,17.20
2022-09-11T04:12:11.740Z,17.20
2022-09-11T04:14:45.173Z,17.20
2022-09-11T04:17:12.705Z,17.20
2022-09-11T04:19:46.167Z,17.20
2022-09-11T04:22:33.193Z,17.30
2022-09-11T04:25:00.743Z,17.30
2022-09-11T04:27:34.168Z,17.30
2022-09-11T04:30:07.198Z,17.30
2022-09-11T04:32:34.502Z,17.30
2022-09-11T04:35:08.179Z,17.30
2022-09-11T04:37:35.888Z,17.20
2022-09-11T04:40:09.202Z,17.20
2022-09-11T04:42:36.072Z,17.20
2022-09-11T04:45:10.217Z,17.20
2022-09-11T04:47:37.072Z,17.30
2022-09-11T04:50:03.927Z,17.30
2022-09-11T04:52:38.238Z,17.20
2022-09-11T04:55:05.828Z,17.20
2022-09-11T04:57:39.192Z,17.20
2022-09-11T05:00:07.058Z,17.20
2022-09-11T05:02:40.170Z,17.20
2022-09-11T05:05:09.172Z,17.20
2022-09-11T05:07:43.212Z,17.20
2022-09-11T05:10:11.202Z,17.10
2022-09-11T05:12:44.192Z,17.10
2022-09-11T05:15:18.177Z,17.10
2022-09-11T05:17:45.144Z,17.10
2022-09-11T05:20:18.163Z,17.10
2022-09-11T05:22:51.207Z,17.20
2022-09-11T05:25:25.647Z,17.20
2022-09-11T05:27:59.152Z,17.10
2022-09-11T05:30:26.028Z,17.20
2022-09-11T05:33:02.269Z,17.20
2022-09-11T05:35:32.341Z,17.10
2022-09-11T05:37:59.557Z,17.10
2022-09-11T05:40:33.217Z,17.10
2022-09-11T05:43:06.227Z,17.10
2022-09-11T05:45:33.142Z,17.10
2022-09-11T05:48:00.027Z,17.10
2022-09-11T05:50:33.177Z,17.10
2022-09-11T05:53:00.282Z,17.10
2022-09-11T05:55:33.234Z,17.10
2022-09-11T05:58:00.100Z,17.10
2022-09-11T06:00:33.193Z,17.10
2022-09-11T06:03:00.064Z,17.10
2022-09-11T06:05:33.199Z,17.10
2022-09-11T06:08:01.817Z,17.10
2022-09-11T06:10:35.198Z,17.20
2022-09-11T06:13:09.202Z,17.20
2022-09-11T06:15:46.595Z,17.30
2022-09-11T06:18:21.182Z,17.30
2022-09-11T06:21:13.208Z,17.30
2022-09-11T06:23:46.433Z,17.30
2022-09-11T06:26:31.207Z,17.30
2022-09-11T06:28:58.344Z,17.30
2022-09-11T06:31:32.187Z,17.40
2022-09-11T06:33:59.027Z,17.40
2022-09-11T06:36:31.609Z,17.50
2022-09-11T06:39:05.224Z,17.50
2022-09-11T06:41:33.007Z,17.60
2022-09-11T06:44:06.288Z,17.60
2022-09-11T06:46:33.187Z,17.60
2022-09-11T06:49:06.168Z,17.60
2022-09-11T06:51:33.399Z,17.60
2022-09-11T06:54:09.241Z,17.60
2022-09-11T06:56:42.239Z,17.60
2022-09-11T06:59:16.234Z,17.70
2022-09-11T07:01:51.308Z,17.70
2022-09-11T07:04:25.242Z,17.70
2022-09-11T07:06:52.769Z,17.70
2022-09-11T07:09:26.199Z,17.80
2022-09-11T07:12:00.203Z,17.80
2022-09-11T07:14:27.024Z,17.80
2022-09-11T07:17:01.195Z,17.80
2022-09-11T07:19:34.252Z,17.80
2022-09-11T07:22:01.141Z,17.90
2022-09-11T07:24:41.270Z,17.90
2022-09-11T07:27:08.793Z,17.90
2022-09-11T07:29:42.358Z,18.00
2022-09-11T07:32:09.290Z,18.00
2022-09-11T07:34:42.234Z,18.00
2022-09-11T07:37:09.183Z,18.10
2022-09-11T07:39:42.345Z,18.10
2022-09-11T07:42:09.294Z,18.00
2022-09-11T07:44:43.277Z,18.00
2022-09-11T07:47:10.261Z,18.00
2022-09-11T07:49:43.231Z,18.00
2022-09-11T07:52:12.625Z,18.00
2022-09-11T07:54:49.245Z,18.00
2022-09-11T07:57:16.141Z,17.90
2022-09-11T07:59:49.283Z,17.90
2022-09-11T08:02:17.851Z,17.90
2022-09-11T08:04:51.206Z,17.90
2022-09-11T08:07:18.318Z,18.00
2022-09-11T08:10:10.136Z,18.00
2022-09-11T08:12:46.329Z,18.00
2022-09-11T08:15:13.348Z,18.10
2022-09-11T08:47:51.385Z,18.00
2022-09-11T08:50:47.240Z,18.40
2022-09-11T08:53:19.539Z,18.50
2022-09-11T08:56:03.272Z,18.60
2022-09-11T08:58:39.739Z,18.60
2022-09-11T09:01:23.305Z,18.60
2022-09-11T09:04:16.174Z,18.50
2022-09-11T09:07:26.140Z,18.50
2022-09-11T09:10:17.339Z,18.40
2022-09-11T09:12:59.414Z,18.30
2022-09-11T09:16:03.643Z,18.20
2022-09-11T09:18:56.411Z,18.10
2022-09-11T09:21:32.069Z,18.00
2022-09-11T09:24:12.189Z,18.00
2022-09-11T09:26:43.979Z,17.90
2022-09-11T09:29:30.205Z,17.80
2022-09-11T09:32:06.754Z,17.70
2022-09-11T09:34:45.208Z,17.70
2022-09-11T09:37:22.557Z,17.60
2022-09-11T09:39:58.364Z,17.60
2022-09-11T09:43:03.148Z,17.50
2022-09-11T09:45:50.330Z,17.50
2022-09-11T09:48:25.328Z,17.50
2022-09-11T09:50:59.278Z,17.50
2022-09-11T09:53:56.528Z,17.40
2022-09-11T09:56:31.420Z,17.40
2022-09-11T09:59:14.163Z,17.40
2022-09-11T10:01:58.903Z,17.40
2022-09-11T10:04:28.510Z,17.40
2022-09-11T10:07:17.318Z,17.50
2022-09-11T10:10:06.627Z,17.50
2022-09-11T10:12:35.548Z,17.50
2022-09-11T10:15:11.538Z,17.50
2022-09-11T10:17:46.349Z,17.50
2022-09-11T10:20:30.328Z,17.50
2022-09-11T10:23:25.953Z,17.50
2022-09-11T10:26:00.558Z,17.50
2022-09-11T10:28:32.886Z,17.50
2022-09-11T10:31:10.778Z,17.50
2022-09-11T10:33:53.547Z,17.40
2022-09-11T10:36:29.937Z,17.40
2022-09-11T10:39:07.398Z,17.40
2022-09-11T10:41:35.239Z,17.50
2022-09-11T10:44:06.414Z,17.50
2022-09-11T10:46:46.322Z,17.50
2022-09-11T10:49:28.548Z,17.50
2022-09-11T10:52:30.378Z,17.50
2022-09-11T10:55:15.558Z,17.50
2022-09-11T10:58:13.913Z,17.50
2022-09-11T11:00:53.415Z,17.50
2022-09-11T11:03:35.430Z,17.50
2022-09-11T11:06:59.683Z,17.50
2022-09-11T11:10:14.316Z,17.50
2022-09-11T11:12:55.600Z,17.40
2022-09-11T11:15:41.355Z,17.50
2022-09-11T11:18:42.880Z,17.50
2022-09-11T11:21:48.353Z,17.50
2022-09-11T11:24:52.371Z,17.50
2022-09-11T11:27:35.260Z,17.50
2022-09-11T11:30:19.676Z,17.60
2022-09-11T11:33:21.343Z,17.60
2022-09-11T11:36:22.278Z,17.80
2022-09-11T11:39:07.380Z,18.20
2022-09-11T11:41:45.847Z,18.40
2022-09-11T11:44:32.903Z,18.60
2022-09-11T11:47:22.428Z,18.70
2022-09-11T11:50:00.373Z,18.60
2022-09-11T11:52:43.293Z,18.70
2022-09-11T11:55:43.805Z,18.80
2022-09-11T11:58:31.633Z,19.10
2022-09-11T12:01:10.378Z,19.40
2022-09-11T12:03:51.661Z,19.70
2022-09-11T12:06:25.520Z,19.90
2022-09-11T12:08:53.079Z,20.20
2022-09-11T12:11:36.285Z,20.40
2022-09-11T12:14:05.104Z,20.50
2022-09-11T12:16:41.388Z,20.60
2022-09-11T12:19:17.694Z,20.60
2022-09-11T12:22:00.497Z,20.60
2022-09-11T12:24:52.576Z,20.70
2022-09-11T12:27:41.348Z,20.70
2022-09-11T12:30:18.277Z,20.70
2022-09-11T12:33:07.363Z,20.60
2022-09-11T12:35:50.548Z,20.40
2022-09-11T12:38:38.412Z,20.30
2022-09-11T12:41:29.384Z,20.10
2022-09-11T12:44:07.265Z,19.90
2022-09-11T12:46:41.676Z,19.80
2022-09-11T12:49:22.943Z,19.60
2022-09-11T12:51:55.516Z,19.50
2022-09-11T12:54:36.348Z,19.40
2022-09-11T12:57:13.304Z,19.30
2022-09-11T12:59:53.407Z,19.20
2022-09-11T13:02:49.716Z,19.10
2022-09-11T13:05:48.159Z,19.10
2022-09-11T13:08:31.401Z,19.00
2022-09-11T13:11:35.590Z,18.90
2022-09-11T13:14:10.391Z,18.90
2022-09-11T13:16:44.910Z,18.90
2022-09-11T13:19:25.211Z,18.90
2022-09-11T13:21:53.611Z,18.90
2022-09-11T13:24:34.381Z,18.90
2022-09-11T13:27:13.693Z,18.90
2022-09-11T13:29:49.411Z,18.90
2022-09-11T13:32:18.003Z,18.90
2022-09-11T13:35:00.313Z,19.00
2022-09-11T13:37:57.640Z,19.10
2022-09-11T13:41:13.224Z,19.30
2022-09-11T13:43:57.966Z,19.50
2022-09-11T13:46:35.727Z,19.60
2022-09-11T13:49:17.300Z,19.80
2022-09-11T13:51:47.947Z,19.90
2022-09-11T13:54:33.732Z,20.00
2022-09-11T13:57:00.919Z,20.10
2022-09-11T13:59:45.440Z,20.20
2022-09-11T14:02:40.604Z,20.20
2022-09-11T14:05:22.781Z,20.10
2022-09-11T14:08:02.395Z,20.00
2022-09-11T14:10:36.641Z,19.90
2022-09-11T14:13:30.519Z,19.90
2022-09-11T14:16:03.886Z,19.80
2022-09-11T14:18:43.333Z,19.70
2022-09-11T14:21:30.611Z,19.80
2022-09-11T14:24:06.331Z,19.80
2022-09-11T14:26:42.771Z,19.90
2022-09-11T14:29:35.762Z,20.00
2022-09-11T14:32:37.128Z,20.00
2022-09-11T14:35:14.290Z,19.90
2022-09-11T14:37:46.181Z,19.90
2022-09-11T14:40:26.285Z,19.90
2022-09-11T14:42:53.841Z,19.80
2022-09-11T14:45:24.680Z,19.90
2022-09-11T14:47:59.361Z,19.90
2022-09-11T14:50:33.596Z,20.10
2022-09-11T14:53:08.181Z,20.10
2022-09-11T14:55:36.210Z,20.20
2022-09-11T14:58:10.560Z,20.20
2022-09-11T15:00:38.412Z,20.20
2022-09-11T15:03:12.467Z,20.10
2022-09-11T15:05:39.912Z,20.00
2022-09-11T15:08:07.296Z,19.90
2022-09-11T15:10:41.311Z,19.90
2022-09-11T15:13:08.674Z,19.80
2022-09-11T15:15:42.651Z,19.70
2022-09-11T15:18:10.269Z,19.60
2022-09-11T15:20:44.465Z,19.60
2022-09-11T15:23:18.574Z,19.50
2022-09-11T15:25:45.843Z,19.40
2022-09-11T15:28:20.445Z,19.40
2022-09-11T15:30:59.887Z,19.30
2022-09-11T15:33:34.399Z,19.20
2022-09-11T15:36:03.511Z,19.20
2022-09-11T15:38:39.642Z,19.10
2022-09-11T15:41:09.317Z,19.10
2022-09-11T15:43:47.260Z,19.10
2022-09-11T15:46:35.422Z,19.10
2022-09-11T15:49:02.801Z,19.10
2022-09-11T15:51:30.223Z,19.00
2022-09-11T15:54:07.363Z,19.00
2022-09-11T15:56:42.523Z,19.00
2022-09-11T15:59:18.442Z,19.00
2022-09-11T16:01:52.851Z,19.00
2022-09-11T16:04:36.430Z,18.90
2022-09-11T16:07:03.837Z,19.00
2022-09-11T16:09:39.282Z,19.00
2022-09-11T16:12:14.058Z,19.00
2022-09-11T16:14:41.695Z,19.10
2022-09-11T16:17:15.317Z,19.10
2022-09-11T16:19:49.366Z,19.10
2022-09-11T16:22:17.385Z,19.10
2022-09-11T16:24:52.427Z,19.10
2022-09-11T16:27:20.076Z,19.10
2022-09-11T16:30:32.623Z,19.10
2022-09-11T16:32:48.255Z,19.10
2022-09-11T16:35:22.695Z,19.00
2022-09-11T16:37:49.846Z,19.00
2022-09-11T16:40:23.861Z,18.90
2022-09-11T16:42:51.625Z,18.90
2022-09-11T16:45:19.561Z,18.90
2022-09-11T16:47:53.999Z,18.80
2022-09-11T16:50:29.468Z,18.80
2022-09-11T16:52:57.717Z,18.70
2022-09-11T16:55:32.513Z,18.70
2022-09-11T16:57:59.817Z,18.60
2022-09-11T17:00:34.058Z,18.60
2022-09-11T17:03:01.248Z,18.60
2022-09-11T17:05:35.463Z,18.50
2022-09-11T17:08:03.825Z,18.50
2022-09-11T17:10:31.659Z,18.40
2022-09-11T17:13:05.498Z,18.40
2022-09-11T17:15:35.943Z,18.40
2022-09-11T17:18:09.573Z,18.30
2022-09-11T17:20:39.287Z,18.20
2022-09-11T17:23:14.543Z,18.20
2022-09-11T17:25:42.407Z,18.20
2022-09-11T17:28:16.518Z,18.10
2022-09-11T17:30:50.458Z,18.10
2022-09-11T17:33:18.019Z,18.10
2022-09-11T17:35:45.583Z,18.00
2022-09-11T17:38:19.557Z,18.00
2022-09-11T17:40:46.775Z,18.00
2022-09-11T17:43:20.330Z,18.10
2022-09-11T17:45:47.516Z,18.10
2022-09-11T17:48:27.471Z,18.20
2022-09-11T17:51:05.553Z,18.10
2022-09-11T17:53:45.357Z,18.10
2022-09-11T17:56:21.812Z,18.10
2022-09-11T17:59:03.483Z,18.10
2022-09-11T18:01:32.000Z,18.10
2022-09-11T18:04:06.743Z,18.10
2022-09-11T18:06:37.138Z,18.20
2022-09-11T18:09:20.463Z,18.10
2022-09-11T18:11:51.404Z,18.10
2022-09-11T18:14:27.573Z,18.20
2022-09-11T18:17:03.907Z,18.20
2022-09-11T18:19:31.751Z,18.10
2022-09-11T18:21:59.865Z,18.10
2022-09-11T18:24:36.722Z,18.10
2022-09-11T18:27:05.824Z,18.10
2022-09-11T18:29:40.412Z,18.10
2022-09-11T18:32:07.643Z,18.00
2022-09-11T18:34:41.808Z,18.00
2022-09-11T18:37:09.403Z,18.00
2022-09-11T18:39:43.548Z,18.00
2022-09-11T18:42:11.225Z,18.00
2022-09-11T18:44:46.028Z,18.00
2022-09-11T18:47:21.058Z,18.00
2022-09-11T18:50:03.568Z,18.20
2022-09-11T18:52:38.476Z,18.40
2022-09-11T18:55:12.513Z,18.50
2022-09-11T18:57:42.352Z,18.70
2022-09-11T19:00:24.369Z,18.80
2022-09-11T19:03:02.510Z,18.80
2022-09-11T19:05:37.787Z,18.70
2022-09-11T19:08:16.403Z,18.70
2022-09-11T19:10:51.543Z,18.60
2022-09-11T19:13:25.505Z,18.50
2022-09-11T19:15:57.497Z,18.40
2022-09-11T19:18:34.653Z,18.30
2022-09-11T19:21:11.736Z,18.30
2022-09-11T19:23:51.523Z,18.30
2022-09-11T19:26:22.406Z,18.20
2022-09-11T19:28:57.613Z,18.20
2022-09-11T19:31:29.734Z,18.20
2022-09-11T19:34:07.481Z,18.20
2022-09-11T19:36:36.307Z,18.20
2022-09-11T19:39:11.592Z,18.10
2022-09-11T19:41:40.073Z,18.10
2022-09-11T19:44:17.558Z,18.10
2022-09-11T19:46:54.035Z,18.10
2022-09-11T19:49:35.828Z,18.10
2022-09-11T19:52:03.538Z,18.00
2022-09-11T19:54:37.868Z,18.00
2022-09-11T19:57:08.548Z,18.00
2022-09-11T19:59:42.474Z,18.00
2022-09-11T20:02:11.387Z,18.00
2022-09-11T20:04:45.373Z,18.00
2022-09-11T20:07:12.929Z,18.00
2022-09-11T20:09:47.550Z,18.00
2022-09-11T20:12:14.873Z,18.00
2022-09-11T20:14:48.638Z,17.90
2022-09-11T20:17:16.308Z,18.00
2022-09-11T20:19:51.489Z,17.90
2022-09-11T20:22:22.490Z,18.00
2022-09-11T20:24:50.109Z,17.90
2022-09-11T20:27:24.384Z,17.90
2022-09-11T20:29:51.605Z,17.90
2022-09-11T20:32:25.585Z,17.90
2022-09-11T20:35:00.486Z,17.90
2022-09-11T20:37:27.666Z,17.90
2022-09-11T20:40:01.447Z,17.90
2022-09-11T20:42:29.320Z,17.90
2022-09-11T20:45:03.598Z,17.90
2022-09-11T20:47:38.747Z,17.90
2022-09-11T20:50:20.467Z,17.90
2022-09-11T20:52:54.355Z,17.90
2022-09-11T20:55:21.579Z,17.90
2022-09-11T20:57:57.518Z,17.80
2022-09-11T21:00:31.364Z,17.80
2022-09-11T21:03:00.410Z,17.80
2022-09-11T21:05:34.498Z,17.70
2022-09-11T21:08:08.372Z,17.70
2022-09-11T21:10:43.523Z,17.70
2022-09-11T21:13:23.686Z,17.70
2022-09-11T21:15:53.938Z,17.70
2022-09-11T21:18:27.835Z,17.70
2022-09-11T21:20:58.080Z,17.70
2022-09-11T21:23:32.704Z,17.70
2022-09-11T21:26:06.613Z,17.70
2022-09-11T21:28:33.793Z,17.60
2022-09-11T21:31:07.519Z,17.60
2022-09-11T21:33:36.278Z,17.60
2022-09-11T21:36:04.520Z,17.60
2022-09-11T21:38:38.548Z,17.60
2022-09-11T21:41:09.203Z,17.50
2022-09-11T21:43:43.486Z,17.50
2022-09-11T21:46:11.208Z,17.50
2022-09-11T21:48:54.546Z,17.50
2022-09-11T21:51:29.857Z,17.40
2022-09-11T21:54:05.475Z,17.40
2022-09-11T21:56:34.320Z,17.40
2022-09-11T21:59:02.712Z,17.40
2022-09-11T22:01:38.622Z,17.40
2022-09-11T22:04:05.826Z,17.40
2022-09-11T22:06:39.696Z,17.40
2022-09-11T22:09:07.066Z,17.40
2022-09-11T22:11:40.440Z,17.50
2022-09-11T22:14:07.580Z,17.50
2022-09-11T22:16:41.491Z,17.50
2022-09-11T22:19:09.690Z,17.50
2022-09-11T22:21:37.159Z,17.50
2022-09-11T22:24:12.017Z,17.50
2022-09-11T22:26:39.736Z,17.50
2022-09-11T22:29:08.820Z,17.40
2022-09-11T22:31:43.499Z,17.40
2022-09-11T22:34:17.555Z,17.40
2022-09-11T22:36:45.496Z,17.40
2022-09-11T22:39:12.827Z,17.40
2022-09-11T22:41:46.562Z,17.40
2022-09-11T22:44:20.585Z,17.40
2022-09-11T22:46:54.814Z,17.50
2022-09-11T22:49:34.581Z,17.50
2022-09-11T22:52:02.215Z,17.50
2022-09-11T22:54:36.609Z,17.50
2022-09-11T22:57:05.423Z,17.50
2022-09-11T22:59:39.429Z,17.50
2022-09-11T23:02:07.002Z,17.50
2022-09-11T23:04:34.502Z,17.50
2022-09-11T23:07:23.696Z,17.50
2022-09-11T23:09:58.161Z,17.50
2022-09-11T23:12:25.510Z,17.50
2022-09-11T23:14:54.769Z,17.50
2022-09-11T23:17:28.705Z,17.50
2022-09-11T23:19:55.956Z,17.60
2022-09-11T23:22:29.493Z,17.50
2022-09-11T23:24:56.977Z,17.50
2022-09-11T23:27:30.745Z,17.50
2022-09-11T23:29:58.236Z,17.50
2022-09-11T23:32:32.479Z,17.60
2022-09-11T23:35:00.003Z,17.60
2022-09-11T23:37:27.260Z,17.60
2022-09-11T23:40:01.593Z,17.60
2022-09-11T23:42:30.511Z,17.60
2022-09-11T23:45:04.494Z,17.60
2022-09-11T23:47:45.499Z,17.60
2022-09-11T23:50:25.659Z,17.60
2022-09-11T23:52:52.879Z,17.60
2022-09-11T23:55:26.414Z,17.60
2022-09-11T23:57:55.520Z,17.60
